sensor_id;sensor_type;location;lat;lon;timestamp;noise_LAeq;noise_LA_min;noise_LA_max;noise_LA01;noise_LA95
46393;Laerm;32099;53.588;10.176;2023-06-01T00:00:07;33.93;32.06;37.07;;
46393;Laerm;32099;53.588;10.176;2023-06-01T00:02:35;34.64;32.16;37.68;;
46393;Laerm;32099;53.588;10.176;2023-06-01T00:05:00;34.09;31.98;40.84;;
46393;Laerm;32099;53.588;10.176;2023-06-01T00:07:26;34.96;31.83;38.91;;
46393;Laerm;32099;53.588;10.176;2023-06-01T00:09:51;36.13;33.35;49.61;;
46393;Laerm;32099;53.588;10.176;2023-06-01T00:12:16;34.74;32.19;46.52;;
46393;Laerm;32099;53.588;10.176;2023-06-01T00:14:41;35.60;33.22;45.10;;
46393;Laerm;32099;53.588;10.176;2023-06-01T00:17:07;34.68;32.12;47.00;;
46393;Laerm;32099;53.588;10.176;2023-06-01T00:19:32;36.00;32.38;40.30;;
46393;Laerm;32099;53.588;10.176;2023-06-01T00:22:00;34.35;31.93;50.46;;
46393;Laerm;32099;53.588;10.176;2023-06-01T00:24:25;34.25;32.12;37.81;;
46393;Laerm;32099;53.588;10.176;2023-06-01T00:26:51;35.07;31.84;45.89;;
46393;Laerm;32099;53.588;10.176;2023-06-01T00:29:16;33.17;31.40;35.58;;
46393;Laerm;32099;53.588;10.176;2023-06-01T00:31:41;33.10;31.69;36.57;;
46393;Laerm;32099;53.588;10.176;2023-06-01T00:34:07;33.18;31.38;37.74;;
46393;Laerm;32099;53.588;10.176;2023-06-01T00:36:33;34.92;31.53;47.99;;
46393;Laerm;32099;53.588;10.176;2023-06-01T00:38:58;33.13;31.32;35.66;;
46393;Laerm;32099;53.588;10.176;2023-06-01T00:41:28;33.40;31.28;37.79;;
46393;Laerm;32099;53.588;10.176;2023-06-01T00:43:54;34.21;31.42;46.53;;
46393;Laerm;32099;53.588;10.176;2023-06-01T00:46:19;33.45;31.09;41.07;;
46393;Laerm;32099;53.588;10.176;2023-06-01T00:48:45;36.74;33.92;41.49;;
46393;Laerm;32099;53.588;10.176;2023-06-01T00:51:10;40.12;33.02;48.80;;
46393;Laerm;32099;53.588;10.176;2023-06-01T00:53:37;41.94;36.12;48.89;;
46393;Laerm;32099;53.588;10.176;2023-06-01T00:56:02;36.00;32.87;41.67;;
46393;Laerm;32099;53.588;10.176;2023-06-01T00:58:28;37.01;32.67;43.34;;
46393;Laerm;32099;53.588;10.176;2023-06-01T01:00:53;40.01;33.39;48.75;;
46393;Laerm;32099;53.588;10.176;2023-06-01T01:03:20;39.00;33.52;53.01;;
46393;Laerm;32099;53.588;10.176;2023-06-01T01:05:46;40.38;34.40;46.41;;
46393;Laerm;32099;53.588;10.176;2023-06-01T01:08:30;36.40;32.93;42.00;;
46393;Laerm;32099;53.588;10.176;2023-06-01T01:11:19;35.33;31.60;45.58;;
46393;Laerm;32099;53.588;10.176;2023-06-01T01:13:58;33.04;31.19;42.22;;
46393;Laerm;32099;53.588;10.176;2023-06-01T01:16:29;34.36;32.07;39.30;;
46393;Laerm;32099;53.588;10.176;2023-06-01T01:19:43;33.59;31.37;37.92;;
46393;Laerm;32099;53.588;10.176;2023-06-01T01:30:34;34.62;32.00;43.01;;
46393;Laerm;32099;53.588;10.176;2023-06-01T01:33:01;42.18;34.44;53.43;;
46393;Laerm;32099;53.588;10.176;2023-06-01T01:35:29;37.81;34.10;43.54;;
46393;Laerm;32099;53.588;10.176;2023-06-01T01:37:55;36.26;33.62;39.50;;
46393;Laerm;32099;53.588;10.176;2023-06-01T01:40:21;38.56;32.75;47.42;;
46393;Laerm;32099;53.588;10.176;2023-06-01T01:42:47;40.10;33.37;48.78;;
46393;Laerm;32099;53.588;10.176;2023-06-01T01:45:13;34.16;31.54;38.26;;
46393;Laerm;32099;53.588;10.176;2023-06-01T01:47:51;38.69;31.49;56.03;;
46393;Laerm;32099;53.588;10.176;2023-06-01T01:50:21;41.60;33.62;57.49;;
46393;Laerm;32099;53.588;10.176;2023-06-01T01:52:51;43.32;34.56;57.97;;
46393;Laerm;32099;53.588;10.176;2023-06-01T01:55:20;43.45;32.19;61.70;;
46393;Laerm;32099;53.588;10.176;2023-06-01T01:57:50;50.16;32.98;64.43;;
46393;Laerm;32099;53.588;10.176;2023-06-01T02:00:17;51.16;34.04;63.92;;
46393;Laerm;32099;53.588;10.176;2023-06-01T02:02:45;51.95;35.09;65.39;;
46393;Laerm;32099;53.588;10.176;2023-06-01T02:05:10;52.70;34.86;66.83;;
46393;Laerm;32099;53.588;10.176;2023-06-01T02:07:36;54.14;34.62;74.73;;
46393;Laerm;32099;53.588;10.176;2023-06-01T02:10:01;58.21;35.77;76.42;;
46393;Laerm;32099;53.588;10.176;2023-06-01T02:12:27;57.76;34.55;72.78;;
46393;Laerm;32099;53.588;10.176;2023-06-01T02:14:52;55.46;34.71;72.45;;
46393;Laerm;32099;53.588;10.176;2023-06-01T02:17:17;58.96;34.72;76.49;;
46393;Laerm;32099;53.588;10.176;2023-06-01T02:19:43;60.39;35.61;78.36;;
46393;Laerm;32099;53.588;10.176;2023-06-01T02:22:09;54.85;35.35;75.69;;
46393;Laerm;32099;53.588;10.176;2023-06-01T02:24:34;45.99;35.50;60.54;;
46393;Laerm;32099;53.588;10.176;2023-06-01T02:26:59;45.57;35.36;65.92;;
46393;Laerm;32099;53.588;10.176;2023-06-01T02:29:25;57.35;35.83;74.64;;
46393;Laerm;32099;53.588;10.176;2023-06-01T02:31:51;59.20;35.72;76.22;;
46393;Laerm;32099;53.588;10.176;2023-06-01T02:34:17;59.94;34.46;77.36;;
46393;Laerm;32099;53.588;10.176;2023-06-01T02:36:42;59.75;34.17;76.54;;
46393;Laerm;32099;53.588;10.176;2023-06-01T02:39:08;59.12;34.33;79.01;;
46393;Laerm;32099;53.588;10.176;2023-06-01T02:41:34;58.79;33.58;75.50;;
46393;Laerm;32099;53.588;10.176;2023-06-01T02:43:59;59.86;35.03;78.67;;
46393;Laerm;32099;53.588;10.176;2023-06-01T02:46:25;58.96;34.47;76.71;;
46393;Laerm;32099;53.588;10.176;2023-06-01T02:48:50;58.10;33.08;74.94;;
46393;Laerm;32099;53.588;10.176;2023-06-01T02:51:16;57.49;33.24;76.35;;
46393;Laerm;32099;53.588;10.176;2023-06-01T02:53:42;58.41;33.72;76.09;;
46393;Laerm;32099;53.588;10.176;2023-06-01T02:56:07;57.55;34.93;75.62;;
46393;Laerm;32099;53.588;10.176;2023-06-01T02:58:33;57.02;33.94;75.71;;
46393;Laerm;32099;53.588;10.176;2023-06-01T03:00:58;45.18;33.75;64.64;;
46393;Laerm;32099;53.588;10.176;2023-06-01T03:03:27;52.15;33.83;70.76;;
46393;Laerm;32099;53.588;10.176;2023-06-01T03:05:53;42.96;33.34;64.29;;
46393;Laerm;32099;53.588;10.176;2023-06-01T03:08:19;43.07;32.88;67.82;;
46393;Laerm;32099;53.588;10.176;2023-06-01T03:10:45;38.65;32.64;52.96;;
46393;Laerm;32099;53.588;10.176;2023-06-01T03:13:11;39.05;33.10;53.55;;
46393;Laerm;32099;53.588;10.176;2023-06-01T03:15:36;39.56;33.72;52.68;;
46393;Laerm;32099;53.588;10.176;2023-06-01T03:18:05;36.80;32.78;46.37;;
46393;Laerm;32099;53.588;10.176;2023-06-01T03:20:36;38.45;33.16;46.73;;
46393;Laerm;32099;53.588;10.176;2023-06-01T03:23:02;48.06;33.71;69.44;;
46393;Laerm;32099;53.588;10.176;2023-06-01T03:25:28;49.72;33.85;70.66;;
46393;Laerm;32099;53.588;10.176;2023-06-01T03:27:53;38.08;34.34;48.49;;
46393;Laerm;32099;53.588;10.176;2023-06-01T03:30:19;49.74;34.30;70.00;;
46393;Laerm;32099;53.588;10.176;2023-06-01T03:32:44;46.83;33.74;67.73;;
46393;Laerm;32099;53.588;10.176;2023-06-01T03:35:11;39.80;34.54;53.60;;
46393;Laerm;32099;53.588;10.176;2023-06-01T03:37:40;39.77;33.03;55.16;;
46393;Laerm;32099;53.588;10.176;2023-06-01T03:40:06;45.95;34.18;65.73;;
46393;Laerm;32099;53.588;10.176;2023-06-01T03:42:42;51.01;34.80;71.97;;
46393;Laerm;32099;53.588;10.176;2023-06-01T03:45:09;43.90;34.58;61.51;;
46393;Laerm;32099;53.588;10.176;2023-06-01T03:47:34;49.60;34.96;69.34;;
46393;Laerm;32099;53.588;10.176;2023-06-01T03:50:00;50.46;36.47;68.01;;
46393;Laerm;32099;53.588;10.176;2023-06-01T03:52:28;50.77;34.05;71.49;;
46393;Laerm;32099;53.588;10.176;2023-06-01T03:54:55;38.78;33.98;49.66;;
46393;Laerm;32099;53.588;10.176;2023-06-01T03:57:21;39.81;34.80;48.77;;
46393;Laerm;32099;53.588;10.176;2023-06-01T03:59:46;45.96;32.99;67.48;;
46393;Laerm;32099;53.588;10.176;2023-06-01T04:02:12;40.54;32.62;61.61;;
46393;Laerm;32099;53.588;10.176;2023-06-01T04:04:38;38.85;33.14;50.71;;
46393;Laerm;32099;53.588;10.176;2023-06-01T04:07:06;38.17;33.29;47.26;;
46393;Laerm;32099;53.588;10.176;2023-06-01T04:09:32;43.76;34.71;57.94;;
46393;Laerm;32099;53.588;10.176;2023-06-01T04:11:57;42.34;35.32;58.51;;
46393;Laerm;32099;53.588;10.176;2023-06-01T04:14:22;43.64;36.18;63.52;;
46393;Laerm;32099;53.588;10.176;2023-06-01T04:16:48;48.52;36.25;68.68;;
46393;Laerm;32099;53.588;10.176;2023-06-01T04:19:13;39.07;34.43;48.21;;
46393;Laerm;32099;53.588;10.176;2023-06-01T04:21:38;51.88;35.38;68.72;;
46393;Laerm;32099;53.588;10.176;2023-06-01T04:24:04;51.58;36.73;70.50;;
46393;Laerm;32099;53.588;10.176;2023-06-01T04:26:29;44.63;38.14;58.79;;
46393;Laerm;32099;53.588;10.176;2023-06-01T04:28:59;49.51;37.73;69.78;;
46393;Laerm;32099;53.588;10.176;2023-06-01T04:31:24;53.52;37.03;69.55;;
46393;Laerm;32099;53.588;10.176;2023-06-01T04:33:50;41.12;35.62;63.02;;
46393;Laerm;32099;53.588;10.176;2023-06-01T04:36:24;43.36;36.00;63.50;;
46393;Laerm;32099;53.588;10.176;2023-06-01T04:38:50;48.99;35.31;69.27;;
46393;Laerm;32099;53.588;10.176;2023-06-01T04:41:22;43.98;34.90;65.39;;
46393;Laerm;32099;53.588;10.176;2023-06-01T04:43:48;53.03;36.61;70.80;;
46393;Laerm;32099;53.588;10.176;2023-06-01T04:46:20;50.95;35.73;70.45;;
46393;Laerm;32099;53.588;10.176;2023-06-01T04:48:52;39.30;34.76;48.53;;
46393;Laerm;32099;53.588;10.176;2023-06-01T04:51:18;53.90;35.95;77.70;;
46393;Laerm;32099;53.588;10.176;2023-06-01T04:53:47;48.36;35.46;66.29;;
46393;Laerm;32099;53.588;10.176;2023-06-01T04:56:23;47.34;35.97;60.31;;
46393;Laerm;32099;53.588;10.176;2023-06-01T04:58:55;50.71;37.14;69.61;;
46393;Laerm;32099;53.588;10.176;2023-06-01T05:01:22;41.21;35.13;51.37;;
46393;Laerm;32099;53.588;10.176;2023-06-01T05:03:51;40.27;36.03;49.51;;
46393;Laerm;32099;53.588;10.176;2023-06-01T05:06:17;52.59;35.34;72.18;;
46393;Laerm;32099;53.588;10.176;2023-06-01T05:08:42;43.90;37.06;50.26;;
46393;Laerm;32099;53.588;10.176;2023-06-01T05:11:08;48.20;37.27;65.56;;
46393;Laerm;32099;53.588;10.176;2023-06-01T05:13:35;41.86;36.52;58.80;;
46393;Laerm;32099;53.588;10.176;2023-06-01T05:16:00;41.55;36.66;54.62;;
46393;Laerm;32099;53.588;10.176;2023-06-01T05:18:26;41.74;37.26;47.92;;
46393;Laerm;32099;53.588;10.176;2023-06-01T05:20:51;50.31;36.41;71.25;;
46393;Laerm;32099;53.588;10.176;2023-06-01T05:23:16;52.64;37.67;73.23;;
46393;Laerm;32099;53.588;10.176;2023-06-01T05:25:42;39.49;35.05;49.09;;
46393;Laerm;32099;53.588;10.176;2023-06-01T05:28:07;40.26;35.25;55.66;;
46393;Laerm;32099;53.588;10.176;2023-06-01T05:30:32;42.59;37.89;53.89;;
46393;Laerm;32099;53.588;10.176;2023-06-01T05:32:58;42.39;37.33;56.43;;
46393;Laerm;32099;53.588;10.176;2023-06-01T05:35:23;53.30;37.98;73.34;;
46393;Laerm;32099;53.588;10.176;2023-06-01T05:37:48;45.48;38.95;56.20;;
46393;Laerm;32099;53.588;10.176;2023-06-01T05:40:14;47.77;36.73;66.33;;
46393;Laerm;32099;53.588;10.176;2023-06-01T05:42:39;54.66;37.79;74.17;;
46393;Laerm;32099;53.588;10.176;2023-06-01T05:45:05;49.46;38.80;64.74;;
46393;Laerm;32099;53.588;10.176;2023-06-01T05:47:30;53.37;39.23;72.34;;
46393;Laerm;32099;53.588;10.176;2023-06-01T05:49:56;52.40;39.89;69.67;;
46393;Laerm;32099;53.588;10.176;2023-06-01T05:52:22;51.38;38.81;69.32;;
46393;Laerm;32099;53.588;10.176;2023-06-01T05:54:48;51.47;39.19;70.04;;
46393;Laerm;32099;53.588;10.176;2023-06-01T05:57:14;54.81;37.17;82.14;;
46393;Laerm;32099;53.588;10.176;2023-06-01T05:59:39;43.04;37.79;52.27;;
46393;Laerm;32099;53.588;10.176;2023-06-01T06:02:05;52.83;38.00;72.64;;
46393;Laerm;32099;53.588;10.176;2023-06-01T06:04:30;54.48;38.17;75.78;;
46393;Laerm;32099;53.588;10.176;2023-06-01T06:06:55;50.74;39.67;68.51;;
46393;Laerm;32099;53.588;10.176;2023-06-01T06:09:21;49.29;38.29;68.36;;
46393;Laerm;32099;53.588;10.176;2023-06-01T06:11:46;55.02;39.12;68.72;;
46393;Laerm;32099;53.588;10.176;2023-06-01T06:14:11;51.38;39.84;69.04;;
46393;Laerm;32099;53.588;10.176;2023-06-01T06:16:38;54.30;37.42;72.93;;
46393;Laerm;32099;53.588;10.176;2023-06-01T06:19:05;50.43;37.82;69.00;;
46393;Laerm;32099;53.588;10.176;2023-06-01T06:21:30;53.20;39.47;71.32;;
46393;Laerm;32099;53.588;10.176;2023-06-01T06:23:56;51.97;39.37;68.08;;
46393;Laerm;32099;53.588;10.176;2023-06-01T06:26:27;42.35;36.85;57.24;;
46393;Laerm;32099;53.588;10.176;2023-06-01T06:28:52;53.62;38.04;72.50;;
46393;Laerm;32099;53.588;10.176;2023-06-01T06:31:17;54.53;39.59;69.55;;
46393;Laerm;32099;53.588;10.176;2023-06-01T06:33:43;50.02;40.19;66.18;;
46393;Laerm;32099;53.588;10.176;2023-06-01T06:36:08;54.34;39.71;69.44;;
46393;Laerm;32099;53.588;10.176;2023-06-01T06:38:33;50.97;39.75;66.14;;
46393;Laerm;32099;53.588;10.176;2023-06-01T06:40:58;55.20;37.97;72.61;;
46393;Laerm;32099;53.588;10.176;2023-06-01T06:43:24;44.06;38.65;61.63;;
46393;Laerm;32099;53.588;10.176;2023-06-01T06:45:49;50.35;37.90;67.79;;
46393;Laerm;32099;53.588;10.176;2023-06-01T06:48:15;52.61;38.38;67.08;;
46393;Laerm;32099;53.588;10.176;2023-06-01T06:50:40;76.17;57.68;90.72;;
46393;Laerm;32099;53.588;10.176;2023-06-01T06:53:09;70.23;40.89;88.39;;
46393;Laerm;32099;53.588;10.176;2023-06-01T06:55:34;58.57;39.31;74.70;;
46393;Laerm;32099;53.588;10.176;2023-06-01T06:57:59;47.37;39.63;58.53;;
46393;Laerm;32099;53.588;10.176;2023-06-01T07:00:25;51.23;37.55;69.42;;
46393;Laerm;32099;53.588;10.176;2023-06-01T07:02:50;55.09;38.79;73.52;;
46393;Laerm;32099;53.588;10.176;2023-06-01T07:05:16;43.59;38.54;53.16;;
46393;Laerm;32099;53.588;10.176;2023-06-01T07:07:41;53.75;39.10;71.19;;
46393;Laerm;32099;53.588;10.176;2023-06-01T07:10:07;55.40;41.60;67.15;;
46393;Laerm;32099;53.588;10.176;2023-06-01T07:12:32;57.88;39.78;71.82;;
46393;Laerm;32099;53.588;10.176;2023-06-01T07:14:58;53.47;39.21;74.50;;
46393;Laerm;32099;53.588;10.176;2023-06-01T07:17:24;54.63;41.01;73.55;;
46393;Laerm;32099;53.588;10.176;2023-06-01T07:19:49;52.18;37.93;70.87;;
46393;Laerm;32099;53.588;10.176;2023-06-01T07:22:14;56.14;38.32;71.41;;
46393;Laerm;32099;53.588;10.176;2023-06-01T07:24:40;44.32;38.25;63.96;;
46393;Laerm;32099;53.588;10.176;2023-06-01T07:27:05;53.70;38.69;69.54;;
46393;Laerm;32099;53.588;10.176;2023-06-01T07:29:32;42.68;37.87;57.70;;
46393;Laerm;32099;53.588;10.176;2023-06-01T07:31:58;49.75;38.59;65.51;;
46393;Laerm;32099;53.588;10.176;2023-06-01T07:34:23;52.97;39.80;76.89;;
46393;Laerm;32099;53.588;10.176;2023-06-01T07:36:49;53.41;38.74;72.92;;
46393;Laerm;32099;53.588;10.176;2023-06-01T07:39:15;53.98;38.87;73.21;;
46393;Laerm;32099;53.588;10.176;2023-06-01T07:41:40;53.07;39.24;70.60;;
46393;Laerm;32099;53.588;10.176;2023-06-01T07:44:06;55.26;39.08;71.89;;
46393;Laerm;32099;53.588;10.176;2023-06-01T07:46:32;54.94;40.13;70.82;;
46393;Laerm;32099;53.588;10.176;2023-06-01T07:48:58;46.78;38.12;70.24;;
46393;Laerm;32099;53.588;10.176;2023-06-01T07:51:24;47.41;38.17;64.81;;
46393;Laerm;32099;53.588;10.176;2023-06-01T07:53:49;47.73;36.94;72.84;;
46393;Laerm;32099;53.588;10.176;2023-06-01T07:56:15;53.33;40.28;73.21;;
46393;Laerm;32099;53.588;10.176;2023-06-01T07:58:40;51.89;38.62;70.65;;
46393;Laerm;32099;53.588;10.176;2023-06-01T08:01:05;43.72;37.52;53.63;;
46393;Laerm;32099;53.588;10.176;2023-06-01T08:03:31;53.20;36.23;68.17;;
46393;Laerm;32099;53.588;10.176;2023-06-01T08:05:58;51.79;39.27;69.49;;
46393;Laerm;32099;53.588;10.176;2023-06-01T08:08:25;54.13;39.16;71.36;;
46393;Laerm;32099;53.588;10.176;2023-06-01T08:10:50;52.93;39.37;71.16;;
46393;Laerm;32099;53.588;10.176;2023-06-01T08:13:17;55.38;36.11;73.60;;
46393;Laerm;32099;53.588;10.176;2023-06-01T08:15:43;56.52;35.91;73.20;;
46393;Laerm;32099;53.588;10.176;2023-06-01T08:18:12;55.99;36.59;73.32;;
46393;Laerm;32099;53.588;10.176;2023-06-01T08:20:38;55.20;38.36;74.68;;
46393;Laerm;32099;53.588;10.176;2023-06-01T08:23:03;50.60;35.48;65.72;;
46393;Laerm;32099;53.588;10.176;2023-06-01T08:25:28;43.53;36.79;57.98;;
46393;Laerm;32099;53.588;10.176;2023-06-01T08:27:54;49.20;36.34;65.26;;
46393;Laerm;32099;53.588;10.176;2023-06-01T08:30:19;40.59;36.29;45.66;;
46393;Laerm;32099;53.588;10.176;2023-06-01T08:32:45;53.08;37.59;71.28;;
46393;Laerm;32099;53.588;10.176;2023-06-01T08:35:10;49.70;36.81;65.28;;
46393;Laerm;32099;53.588;10.176;2023-06-01T08:37:36;53.65;36.93;69.49;;
46393;Laerm;32099;53.588;10.176;2023-06-01T08:40:02;42.90;36.23;59.45;;
46393;Laerm;32099;53.588;10.176;2023-06-01T08:42:35;42.19;35.78;60.16;;
46393;Laerm;32099;53.588;10.176;2023-06-01T08:45:05;47.87;38.24;61.72;;
46393;Laerm;32099;53.588;10.176;2023-06-01T08:47:31;56.46;36.36;76.66;;
46393;Laerm;32099;53.588;10.176;2023-06-01T08:49:58;52.92;36.04;71.44;;
46393;Laerm;32099;53.588;10.176;2023-06-01T08:52:26;52.44;37.85;70.25;;
46393;Laerm;32099;53.588;10.176;2023-06-01T08:54:58;44.73;35.55;62.15;;
46393;Laerm;32099;53.588;10.176;2023-06-01T08:57:23;50.05;36.75;68.46;;
46393;Laerm;32099;53.588;10.176;2023-06-01T08:59:49;46.91;35.58;61.51;;
46393;Laerm;32099;53.588;10.176;2023-06-01T09:02:14;51.16;37.93;70.43;;
46393;Laerm;32099;53.588;10.176;2023-06-01T09:04:40;45.74;39.45;58.32;;
46393;Laerm;32099;53.588;10.176;2023-06-01T09:07:09;50.92;37.24;69.50;;
46393;Laerm;32099;53.588;10.176;2023-06-01T09:09:36;51.04;36.86;64.54;;
46393;Laerm;32099;53.588;10.176;2023-06-01T09:14:43;52.79;38.03;70.95;;
46393;Laerm;32099;53.588;10.176;2023-06-01T09:17:13;54.72;37.19;70.77;;
46393;Laerm;32099;53.588;10.176;2023-06-01T09:19:45;54.89;39.42;72.24;;
46393;Laerm;32099;53.588;10.176;2023-06-01T09:22:11;56.00;39.31;71.75;;
46393;Laerm;32099;53.588;10.176;2023-06-01T09:24:37;53.08;36.32;72.43;;
46393;Laerm;32099;53.588;10.176;2023-06-01T09:27:03;53.47;36.42;71.67;;
46393;Laerm;32099;53.588;10.176;2023-06-01T09:29:29;51.81;35.44;70.16;;
46393;Laerm;32099;53.588;10.176;2023-06-01T09:31:54;44.65;35.65;61.43;;
46393;Laerm;32099;53.588;10.176;2023-06-01T09:34:20;48.71;35.26;65.53;;
46393;Laerm;32099;53.588;10.176;2023-06-01T09:36:47;50.90;36.70;70.30;;
46393;Laerm;32099;53.588;10.176;2023-06-01T09:39:14;56.70;36.57;70.52;;
46393;Laerm;32099;53.588;10.176;2023-06-01T09:41:47;53.92;37.29;71.40;;
46393;Laerm;32099;53.588;10.176;2023-06-01T09:44:14;55.01;35.73;73.22;;
46393;Laerm;32099;53.588;10.176;2023-06-01T09:46:47;47.05;35.09;61.87;;
46393;Laerm;32099;53.588;10.176;2023-06-01T09:49:21;52.75;34.82;69.84;;
46393;Laerm;32099;53.588;10.176;2023-06-01T09:51:46;46.32;36.39;61.60;;
46393;Laerm;32099;53.588;10.176;2023-06-01T09:54:26;47.90;36.17;69.09;;
46393;Laerm;32099;53.588;10.176;2023-06-01T09:56:52;50.16;36.07;65.81;;
46393;Laerm;32099;53.588;10.176;2023-06-01T09:59:19;51.67;35.47;69.90;;
46393;Laerm;32099;53.588;10.176;2023-06-01T10:01:49;41.09;36.16;51.29;;
46393;Laerm;32099;53.588;10.176;2023-06-01T10:04:20;60.84;39.25;74.15;;
46393;Laerm;32099;53.588;10.176;2023-06-01T10:06:46;63.76;35.76;82.81;;
46393;Laerm;32099;53.588;10.176;2023-06-01T10:09:13;42.06;35.06;60.45;;
46393;Laerm;32099;53.588;10.176;2023-06-01T10:11:41;50.32;34.35;70.65;;
46393;Laerm;32099;53.588;10.176;2023-06-01T10:14:06;54.00;35.78;73.83;;
46393;Laerm;32099;53.588;10.176;2023-06-01T10:16:31;52.90;37.86;71.45;;
46393;Laerm;32099;53.588;10.176;2023-06-01T10:18:57;52.64;39.25;69.04;;
46393;Laerm;32099;53.588;10.176;2023-06-01T10:21:24;56.74;39.24;73.51;;
46393;Laerm;32099;53.588;10.176;2023-06-01T10:23:49;54.34;38.53;73.99;;
46393;Laerm;32099;53.588;10.176;2023-06-01T10:26:16;52.09;37.89;67.97;;
46393;Laerm;32099;53.588;10.176;2023-06-01T10:28:48;42.92;36.80;53.49;;
46393;Laerm;32099;53.588;10.176;2023-06-01T10:31:37;43.47;36.65;61.11;;
46393;Laerm;32099;53.588;10.176;2023-06-01T10:34:04;57.23;36.53;74.38;;
46393;Laerm;32099;53.588;10.176;2023-06-01T10:39:27;48.71;36.22;66.97;;
46393;Laerm;32099;53.588;10.176;2023-06-01T10:41:55;44.45;37.01;63.63;;
46393;Laerm;32099;53.588;10.176;2023-06-01T10:57:32;54.97;37.13;71.21;;
46393;Laerm;32099;53.588;10.176;2023-06-01T11:05:46;46.63;37.48;63.99;;
46393;Laerm;32099;53.588;10.176;2023-06-01T11:13:21;48.72;37.20;64.21;;
46393;Laerm;32099;53.588;10.176;2023-06-01T11:18:48;41.06;35.67;55.38;;
46393;Laerm;32099;53.588;10.176;2023-06-01T11:21:37;48.75;34.88;65.50;;
46393;Laerm;32099;53.588;10.176;2023-06-01T11:24:10;51.58;35.61;68.46;;
46393;Laerm;32099;53.588;10.176;2023-06-01T11:26:38;50.23;35.62;67.32;;
46393;Laerm;32099;53.588;10.176;2023-06-01T11:29:09;52.41;34.64;68.23;;
46393;Laerm;32099;53.588;10.176;2023-06-01T11:31:37;52.84;36.46;70.36;;
46393;Laerm;32099;53.588;10.176;2023-06-01T11:34:03;41.50;35.60;54.53;;
46393;Laerm;32099;53.588;10.176;2023-06-01T11:36:29;47.45;35.28;69.50;;
46393;Laerm;32099;53.588;10.176;2023-06-01T11:38:55;52.29;34.72;69.53;;
46393;Laerm;32099;53.588;10.176;2023-06-01T11:41:21;54.48;34.19;71.12;;
46393;Laerm;32099;53.588;10.176;2023-06-01T11:43:54;53.67;33.60;68.13;;
46393;Laerm;32099;53.588;10.176;2023-06-01T11:46:23;52.41;35.38;86.10;;
46393;Laerm;32099;53.588;10.176;2023-06-01T11:51:27;50.43;37.84;67.40;;
46393;Laerm;32099;53.588;10.176;2023-06-01T11:53:53;52.57;37.45;68.85;;
46393;Laerm;32099;53.588;10.176;2023-06-01T11:56:20;53.40;37.19;69.17;;
46393;Laerm;32099;53.588;10.176;2023-06-01T11:58:56;52.86;37.96;71.40;;
46393;Laerm;32099;53.588;10.176;2023-06-01T12:01:22;53.09;35.09;70.44;;
46393;Laerm;32099;53.588;10.176;2023-06-01T12:03:47;53.91;37.31;72.32;;
46393;Laerm;32099;53.588;10.176;2023-06-01T12:06:22;52.80;37.06;72.74;;
46393;Laerm;32099;53.588;10.176;2023-06-01T12:08:55;53.51;36.58;69.73;;
46393;Laerm;32099;53.588;10.176;2023-06-01T12:11:25;54.23;37.50;72.21;;
46393;Laerm;32099;53.588;10.176;2023-06-01T12:13:54;53.54;38.02;71.11;;
46393;Laerm;32099;53.588;10.176;2023-06-01T12:16:21;54.93;38.83;71.17;;
46393;Laerm;32099;53.588;10.176;2023-06-01T12:18:46;51.30;36.29;71.50;;
46393;Laerm;32099;53.588;10.176;2023-06-01T12:21:12;49.45;36.79;66.89;;
46393;Laerm;32099;53.588;10.176;2023-06-01T12:23:38;50.32;37.56;68.21;;
46393;Laerm;32099;53.588;10.176;2023-06-01T12:26:03;52.09;35.87;68.35;;
46393;Laerm;32099;53.588;10.176;2023-06-01T12:28:46;49.01;34.62;68.59;;
46393;Laerm;32099;53.588;10.176;2023-06-01T12:31:14;53.69;35.05;79.44;;
46393;Laerm;32099;53.588;10.176;2023-06-01T12:33:40;55.79;35.98;71.02;;
46393;Laerm;32099;53.588;10.176;2023-06-01T12:36:07;45.74;35.53;63.40;;
46393;Laerm;32099;53.588;10.176;2023-06-01T12:41:15;52.19;37.06;71.10;;
46393;Laerm;32099;53.588;10.176;2023-06-01T12:43:46;54.09;38.23;70.28;;
46393;Laerm;32099;53.588;10.176;2023-06-01T12:48:47;49.26;35.90;67.64;;
46393;Laerm;32099;53.588;10.176;2023-06-01T12:51:13;46.35;36.86;69.29;;
46393;Laerm;32099;53.588;10.176;2023-06-01T12:53:40;50.68;35.81;66.07;;
46393;Laerm;32099;53.588;10.176;2023-06-01T12:56:07;50.69;35.11;68.43;;
46393;Laerm;32099;53.588;10.176;2023-06-01T12:58:32;42.12;33.78;55.99;;
46393;Laerm;32099;53.588;10.176;2023-06-01T13:00:58;52.24;36.78;72.14;;
46393;Laerm;32099;53.588;10.176;2023-06-01T13:03:23;52.65;36.13;68.06;;
46393;Laerm;32099;53.588;10.176;2023-06-01T13:05:49;48.81;35.77;65.87;;
46393;Laerm;32099;53.588;10.176;2023-06-01T13:08:16;56.08;36.11;84.87;;
46393;Laerm;32099;53.588;10.176;2023-06-01T13:10:42;54.62;37.10;69.90;;
46393;Laerm;32099;53.588;10.176;2023-06-01T13:13:07;52.64;37.39;67.62;;
46393;Laerm;32099;53.588;10.176;2023-06-01T13:15:33;49.77;35.54;65.81;;
46393;Laerm;32099;53.588;10.176;2023-06-01T13:17:59;50.26;37.46;67.18;;
46393;Laerm;32099;53.588;10.176;2023-06-01T13:20:24;49.56;38.23;63.56;;
46393;Laerm;32099;53.588;10.176;2023-06-01T13:22:49;49.58;36.97;64.30;;
46393;Laerm;32099;53.588;10.176;2023-06-01T13:25:15;54.30;35.91;71.71;;
46393;Laerm;32099;53.588;10.176;2023-06-01T13:27:40;40.50;36.30;47.65;;
46393;Laerm;32099;53.588;10.176;2023-06-01T13:30:06;48.63;36.97;67.80;;
46393;Laerm;32099;53.588;10.176;2023-06-01T13:32:32;56.67;36.74;77.63;;
46393;Laerm;32099;53.588;10.176;2023-06-01T13:34:58;49.65;37.06;67.58;;
46393;Laerm;32099;53.588;10.176;2023-06-01T13:37:23;51.30;36.85;70.35;;
46393;Laerm;32099;53.588;10.176;2023-06-01T13:39:48;49.22;35.06;65.25;;
46393;Laerm;32099;53.588;10.176;2023-06-01T13:42:14;45.90;36.35;63.15;;
46393;Laerm;32099;53.588;10.176;2023-06-01T13:44:41;50.78;37.99;67.53;;
46393;Laerm;32099;53.588;10.176;2023-06-01T13:47:10;50.38;39.02;67.33;;
46393;Laerm;32099;53.588;10.176;2023-06-01T13:49:36;46.74;39.22;61.58;;
46393;Laerm;32099;53.588;10.176;2023-06-01T13:52:01;52.04;37.62;67.53;;
46393;Laerm;32099;53.588;10.176;2023-06-01T13:54:26;54.03;35.68;73.63;;
46393;Laerm;32099;53.588;10.176;2023-06-01T13:56:51;49.92;35.42;66.33;;
46393;Laerm;32099;53.588;10.176;2023-06-01T13:59:17;49.89;42.76;63.79;;
46393;Laerm;32099;53.588;10.176;2023-06-01T14:01:42;52.41;40.05;66.46;;
46393;Laerm;32099;53.588;10.176;2023-06-01T14:04:07;50.09;38.32;66.49;;
46393;Laerm;32099;53.588;10.176;2023-06-01T14:06:33;50.62;37.53;68.39;;
46393;Laerm;32099;53.588;10.176;2023-06-01T14:08:59;54.03;37.08;71.26;;
46393;Laerm;32099;53.588;10.176;2023-06-01T14:11:24;53.45;37.86;67.32;;
46393;Laerm;32099;53.588;10.176;2023-06-01T14:13:50;51.48;35.85;71.46;;
46393;Laerm;32099;53.588;10.176;2023-06-01T14:16:15;56.03;36.68;73.65;;
46393;Laerm;32099;53.588;10.176;2023-06-01T14:18:41;45.84;34.60;63.36;;